Accueil
METAR-TAF:

METAR-TAF

Aéroports :

Diest, Belgique

Base aérienne de Schaffen

latitude: 51-00N, longitude: 005-04E, altitude: 30 m

Observation

Le bulletin a été fait il y a 19 minutes, à 19:24 UTC
Vent 5 kt de sud
Température 1°C
Humidité 93%
Pression 1013 hPa
Visibilité: 6000 m

METAR: EBDT 121924Z AUTO 19005KT 6000 NCD 01/00 Q1013 WHT

Heure: 20:43 (19:43 UTC)

Prévision

Le bulletin a été fait il y a 4 heures et 2 minutes, à 15:41 UTC
Prévision valable du 12 à 19 UTC au 13 à 07 UTC
Vent 7 kt de sud/sud-ouest
Visibilité 10 km ou plus
Quelques nuages à une hauteur de 2000 ft
Nuages épars à une hauteur de 20000 ft
Evoluant progressivement
du 13 à 04 UTC au 13 à 06 UTC
Vent 13 kt de sud/sud-ouest
Nuages épars à une hauteur de 1500 ft
Nuages fragmentés à une hauteur de 5000 ft

TAF: EBDT 121541Z 1219/1307 21007KT 9999 FEW020 SCT200 BECMG 1304/1306 20013KT SCT015 BKN050

Observations et prévisions météorologiques de plus de 4000 aéroports (messages METAR et TAF).

Les stations disponibles sont représentées par des disques jaunes et rouges sur la carte.

Passer la souris dessus pour voir le nom de la station.

Cliquer dessus pour voir les observations et prévisions météorologiques.

Pour changer de carte: cliquez sur les boutons verts avec une croix noire pour zoomer, sur le bouton vert avec un tiret pour effectuer un zoom arrière, ou sur les flèches vertes pour les cartes adjacentes.


METAR-TAF: